createdAt,value
2023-12-28T00:02:11.857Z,3.10
2023-12-28T00:07:14.850Z,2.20
2023-12-28T00:12:17.223Z,1.90
2023-12-28T00:17:19.705Z,1.67
2023-12-28T00:22:21.954Z,1.50
2023-12-28T00:27:24.307Z,1.83
2023-12-28T00:32:26.798Z,1.92
2023-12-28T00:37:29.160Z,1.80
2023-12-28T00:42:31.654Z,1.60
2023-12-28T00:47:34.117Z,1.83
2023-12-28T00:52:36.522Z,2.10
2023-12-28T00:57:38.860Z,2.05
2023-12-28T01:02:41.151Z,1.52
2023-12-28T01:07:43.466Z,1.83
2023-12-28T01:12:46.384Z,1.80
2023-12-28T01:17:48.946Z,1.40
2023-12-28T01:22:51.737Z,1.10
2023-12-28T01:27:54.133Z,1.50
2023-12-28T01:32:56.765Z,1.65
2023-12-28T01:38:01.766Z,1.33
2023-12-28T01:43:04.405Z,1.50
2023-12-28T01:48:07.123Z,1.38
2023-12-28T01:53:11.809Z,1.20
2023-12-28T01:58:14.236Z,1.52
2023-12-28T02:03:16.701Z,1.52
2023-12-28T02:08:18.951Z,1.75
2023-12-28T02:13:21.342Z,1.77
2023-12-28T02:18:30.850Z,1.50
2023-12-28T02:23:34.953Z,1.50
2023-12-28T02:28:37.350Z,1.65
2023-12-28T02:33:52.377Z,1.88
2023-12-28T02:38:59.707Z,1.90
2023-12-28T02:44:02.120Z,2.78
2023-12-28T02:49:04.522Z,1.52
2023-12-28T02:54:09.505Z,1.73
2023-12-28T02:59:12.120Z,1.58
2023-12-28T03:04:14.580Z,2.33
2023-12-28T03:09:16.998Z,1.42
2023-12-28T03:14:19.556Z,1.73
2023-12-28T03:19:22.207Z,1.60
2023-12-28T03:24:24.688Z,1.52
2023-12-28T03:29:29.248Z,1.60
2023-12-28T03:34:32.056Z,1.58
2023-12-28T03:39:35.493Z,1.67
2023-12-28T03:44:37.994Z,1.58
2023-12-28T03:49:40.939Z,1.38
2023-12-28T03:54:43.354Z,1.30
2023-12-28T03:59:45.664Z,1.30
2023-12-28T04:04:48.032Z,1.38
2023-12-28T04:09:50.627Z,1.38
2023-12-28T04:14:53.084Z,1.67
2023-12-28T04:19:55.513Z,1.30
2023-12-28T04:24:58.026Z,1.40
2023-12-28T04:30:00.373Z,1.40
2023-12-28T04:35:04.836Z,1.23
2023-12-28T04:40:08.011Z,1.50
2023-12-28T04:45:11.574Z,1.77
2023-12-28T04:50:14.040Z,1.30
2023-12-28T04:55:16.501Z,1.15
2023-12-28T05:00:20.478Z,1.73
2023-12-28T05:05:24.648Z,1.20
2023-12-28T05:10:27.396Z,1.65
2023-12-28T05:15:30.657Z,1.45
2023-12-28T05:20:33.321Z,1.60
2023-12-28T05:25:35.820Z,1.80
2023-12-28T05:30:39.029Z,1.95
2023-12-28T05:35:41.497Z,1.50
2023-12-28T05:40:45.826Z,1.95
2023-12-28T05:45:48.215Z,1.27
2023-12-28T05:50:51.004Z,1.80
2023-12-28T05:55:53.349Z,1.27
2023-12-28T06:00:56.088Z,1.30
2023-12-28T06:05:58.786Z,1.58
2023-12-28T06:11:01.123Z,1.65
2023-12-28T06:16:03.958Z,1.50
2023-12-28T06:21:07.532Z,1.90
2023-12-28T06:26:09.837Z,1.52
2023-12-28T06:31:12.406Z,1.77
2023-12-28T06:36:14.929Z,1.65
2023-12-28T06:41:17.346Z,1.52
2023-12-28T06:46:20.250Z,1.40
2023-12-28T06:51:23.800Z,1.20
2023-12-28T06:56:26.857Z,1.42
2023-12-28T07:01:29.452Z,1.77
2023-12-28T07:06:31.893Z,1.58
2023-12-28T07:11:34.459Z,1.42
2023-12-28T07:16:36.870Z,1.50
2023-12-28T07:21:39.165Z,1.83
2023-12-28T07:26:41.658Z,1.67
2023-12-28T07:31:44.048Z,1.25
2023-12-28T07:36:46.400Z,1.70
2023-12-28T07:41:51.005Z,1.60
2023-12-28T07:46:53.273Z,1.85
2023-12-28T07:51:55.730Z,1.70
2023-12-28T07:56:58.092Z,1.55
2023-12-28T08:02:00.466Z,1.10
2023-12-28T08:07:03.068Z,1.10
2023-12-28T08:12:06.049Z,1.20
2023-12-28T08:17:08.404Z,1.30
2023-12-28T08:22:10.848Z,1.30
2023-12-28T08:27:13.340Z,1.50
2023-12-28T08:32:16.035Z,0.98
2023-12-28T08:37:18.355Z,1.35
2023-12-28T08:42:21.120Z,1.73
2023-12-28T08:47:23.740Z,1.42
2023-12-28T08:52:26.111Z,1.48
2023-12-28T08:57:39.433Z,2.53
2023-12-28T09:02:44.765Z,1.80
2023-12-28T09:07:48.464Z,1.77
2023-12-28T09:12:50.856Z,2.40
2023-12-28T09:17:53.396Z,2.17
2023-12-28T09:22:57.754Z,2.58
2023-12-28T09:28:00.459Z,2.67
2023-12-28T09:33:03.205Z,2.50
2023-12-28T09:38:05.746Z,2.92
2023-12-28T09:43:20.443Z,2.85
2023-12-28T09:48:24.157Z,2.80
2023-12-28T09:53:27.399Z,2.78
2023-12-28T09:58:32.237Z,2.20
2023-12-28T10:03:34.608Z,2.58
2023-12-28T10:08:37.308Z,2.50
2023-12-28T10:13:39.663Z,2.67
2023-12-28T10:18:45.920Z,2.75
2023-12-28T10:23:48.395Z,2.45
2023-12-28T10:28:50.786Z,2.88
2023-12-28T10:33:53.840Z,4.38
2023-12-28T10:39:02.030Z,2.95
2023-12-28T10:44:09.554Z,1.92
2023-12-28T10:49:17.700Z,2.47
2023-12-28T10:54:29.313Z,2.03
2023-12-28T10:59:34.502Z,2.20
2023-12-28T11:04:47.782Z,2.50
2023-12-28T11:09:50.988Z,2.42
2023-12-28T11:14:54.513Z,2.35
2023-12-28T11:19:58.053Z,2.60
2023-12-28T11:25:00.557Z,2.58
2023-12-28T11:30:04.950Z,2.05
2023-12-28T11:35:11.437Z,2.10
2023-12-28T11:40:18.034Z,2.35
2023-12-28T11:45:22.945Z,2.30
2023-12-28T11:50:25.298Z,1.95
2023-12-28T11:55:27.773Z,1.38
2023-12-28T12:00:30.147Z,1.55
2023-12-28T12:05:32.774Z,1.77
2023-12-28T12:10:35.369Z,1.52
2023-12-28T12:15:38.230Z,1.10
2023-12-28T12:20:41.252Z,1.58
2023-12-28T12:25:46.744Z,2.00
2023-12-28T12:30:59.335Z,1.58
2023-12-28T12:36:02.412Z,1.60
2023-12-28T12:41:04.917Z,1.33
2023-12-28T12:46:07.460Z,1.70
2023-12-28T12:51:10.053Z,2.63
2023-12-28T12:56:12.614Z,1.45
2023-12-28T13:01:15.225Z,1.23
2023-12-28T13:06:17.816Z,1.38
2023-12-28T13:11:24.829Z,1.50
2023-12-28T13:16:27.384Z,1.55
2023-12-28T13:21:30.057Z,1.27
2023-12-28T13:26:32.362Z,1.25
2023-12-28T13:31:36.064Z,1.65
2023-12-28T13:36:38.429Z,1.67
2023-12-28T13:41:41.596Z,1.50
2023-12-28T13:46:44.638Z,1.35
2023-12-28T13:51:47.612Z,1.30
2023-12-28T13:56:50.030Z,1.63
2023-12-28T14:01:52.801Z,1.35
2023-12-28T14:06:55.426Z,1.67
2023-12-28T14:11:57.863Z,1.58
2023-12-28T14:17:00.073Z,2.05
2023-12-28T14:22:02.832Z,1.48
2023-12-28T14:27:05.640Z,1.48
2023-12-28T14:32:08.690Z,1.23
2023-12-28T14:37:10.996Z,1.30
2023-12-28T14:42:15.048Z,1.40
2023-12-28T14:47:17.357Z,2.00
2023-12-28T14:52:19.640Z,1.52
2023-12-28T14:57:23.770Z,1.60
2023-12-28T15:02:26.093Z,2.05
2023-12-28T15:07:28.374Z,1.90
2023-12-28T15:12:30.986Z,1.80
2023-12-28T15:17:33.790Z,2.25
2023-12-28T15:22:37.279Z,2.00
2023-12-28T15:27:39.906Z,2.20
2023-12-28T15:32:42.886Z,2.25
2023-12-28T15:37:45.324Z,2.30
2023-12-28T15:42:49.574Z,2.67
2023-12-28T15:47:52.291Z,2.28
2023-12-28T15:52:54.520Z,2.35
2023-12-28T15:57:57.030Z,2.28
2023-12-28T16:02:59.358Z,2.20
2023-12-28T16:08:02.071Z,2.35
2023-12-28T16:13:05.237Z,2.53
2023-12-28T16:18:08.128Z,2.22
2023-12-28T16:23:10.564Z,1.92
2023-12-28T16:28:13.205Z,2.78
2023-12-28T16:33:15.593Z,3.95
2023-12-28T16:38:18.733Z,2.13
2023-12-28T16:43:21.054Z,3.92
2023-12-28T16:48:24.205Z,1.92
2023-12-28T16:53:26.650Z,2.55
2023-12-28T16:58:29.011Z,2.35
2023-12-28T17:03:35.086Z,2.58
2023-12-28T17:08:37.822Z,2.38
2023-12-28T17:13:40.432Z,3.00
2023-12-28T17:18:43.071Z,1.58
2023-12-28T17:23:53.501Z,1.70
2023-12-28T17:29:08.940Z,1.27
2023-12-28T17:34:11.905Z,1.33
2023-12-28T17:39:14.465Z,1.00
2023-12-28T17:44:25.870Z,1.30
2023-12-28T17:49:30.783Z,2.35
2023-12-28T17:54:33.356Z,0.85
2023-12-28T17:59:35.723Z,0.80
2023-12-28T18:04:38.323Z,1.17
2023-12-28T18:09:44.283Z,0.68
2023-12-28T18:14:46.553Z,1.15
2023-12-28T18:19:48.987Z,0.70
2023-12-28T18:24:51.501Z,1.58
2023-12-28T18:29:54.619Z,1.02
2023-12-28T18:34:57.181Z,1.17
2023-12-28T18:39:59.386Z,1.60
2023-12-28T18:45:02.060Z,1.35
2023-12-28T18:50:08.084Z,1.27
2023-12-28T18:55:10.467Z,1.00
2023-12-28T19:00:13.378Z,1.02
2023-12-28T19:05:17.257Z,0.80
2023-12-28T19:10:19.803Z,0.90
2023-12-28T19:15:22.182Z,1.17
2023-12-28T19:20:24.676Z,1.35
2023-12-28T19:25:26.976Z,0.68
2023-12-28T19:30:29.373Z,0.82
2023-12-28T19:35:31.798Z,1.10
2023-12-28T19:40:34.108Z,0.50
2023-12-28T19:45:36.426Z,0.40
2023-12-28T19:50:41.042Z,1.10
2023-12-28T19:55:44.426Z,1.08
2023-12-28T20:00:46.845Z,1.40
2023-12-28T20:05:49.199Z,1.20
2023-12-28T20:10:51.500Z,1.20
2023-12-28T20:15:53.934Z,1.30
2023-12-28T20:20:56.734Z,1.67
2023-12-28T20:25:59.094Z,1.40
2023-12-28T20:31:01.932Z,1.30
2023-12-28T20:36:04.610Z,1.10
2023-12-28T20:41:07.664Z,1.75
2023-12-28T20:46:09.966Z,1.55
2023-12-28T20:51:13.192Z,1.20
2023-12-28T20:56:15.830Z,1.60
2023-12-28T21:01:18.309Z,1.20
2023-12-28T21:06:20.763Z,1.13
2023-12-28T21:11:23.085Z,1.45
2023-12-28T21:16:26.593Z,1.20
2023-12-28T21:21:28.893Z,1.15
2023-12-28T21:26:31.257Z,1.33
2023-12-28T21:31:35.241Z,1.40
2023-12-28T21:36:37.672Z,1.70
2023-12-28T21:41:40.033Z,1.30
2023-12-28T21:46:42.866Z,1.67
2023-12-28T21:51:45.444Z,1.55
2023-12-28T21:56:47.769Z,1.85
2023-12-28T22:01:50.157Z,1.88
2023-12-28T22:06:52.613Z,1.55
2023-12-28T22:11:54.914Z,2.08
2023-12-28T22:16:57.353Z,1.63
2023-12-28T22:21:59.593Z,1.52
2023-12-28T22:27:02.676Z,1.60
2023-12-28T22:32:05.179Z,1.58
2023-12-28T22:37:07.758Z,1.60
2023-12-28T22:42:12.390Z,1.98
2023-12-28T22:47:14.591Z,1.50
2023-12-28T22:52:17.381Z,1.50
2023-12-28T22:57:19.899Z,1.73
2023-12-28T23:02:22.140Z,1.45
2023-12-28T23:07:25.649Z,1.15
2023-12-28T23:12:28.310Z,1.80
2023-12-28T23:17:30.704Z,1.60
2023-12-28T23:22:33.909Z,1.85
2023-12-28T23:27:36.202Z,1.85
2023-12-28T23:32:38.706Z,1.60
2023-12-28T23:37:41.189Z,1.50
2023-12-28T23:42:43.466Z,1.58
2023-12-28T23:47:45.773Z,1.40
2023-12-28T23:52:48.046Z,0.93
2023-12-28T23:57:50.449Z,1.50
